createdAt,value
2018-08-25T00:00:28.690Z,3.37
2018-08-25T00:02:57.243Z,3.40
2018-08-25T00:05:25.809Z,3.53
2018-08-25T00:07:54.365Z,4.00
2018-08-25T00:10:22.904Z,3.90
2018-08-25T00:12:51.426Z,4.10
2018-08-25T00:15:20.023Z,4.60
2018-08-25T00:17:48.564Z,4.43
2018-08-25T00:20:17.125Z,4.87
2018-08-25T00:22:45.688Z,5.17
2018-08-25T00:25:14.247Z,4.47
2018-08-25T00:27:42.790Z,4.40
2018-08-25T00:30:16.727Z,5.37
2018-08-25T00:32:45.339Z,5.47
2018-08-25T00:35:13.900Z,5.20
2018-08-25T00:37:42.491Z,4.83
2018-08-25T00:40:11.118Z,4.73
2018-08-25T00:42:39.650Z,4.50
2018-08-25T00:45:08.293Z,4.43
2018-08-25T00:47:36.867Z,5.23
2018-08-25T00:50:05.553Z,5.23
2018-08-25T00:52:34.131Z,4.80
2018-08-25T00:55:02.677Z,4.67
2018-08-25T00:57:31.257Z,4.63
2018-08-25T00:59:59.834Z,5.27
2018-08-25T01:02:28.427Z,5.47
2018-08-25T01:04:56.986Z,4.60
2018-08-25T01:10:08.451Z,5.27
2018-08-25T01:12:37.110Z,5.83
2018-08-25T01:15:06.116Z,5.60
2018-08-25T01:17:34.675Z,4.67
2018-08-25T01:20:03.328Z,4.77
2018-08-25T01:22:31.863Z,5.20
2018-08-25T01:25:00.425Z,5.80
2018-08-25T01:27:28.964Z,4.93
2018-08-25T01:29:57.524Z,5.20
2018-08-25T01:32:26.100Z,5.23
2018-08-25T01:34:54.690Z,5.70
2018-08-25T01:37:23.228Z,5.30
2018-08-25T01:39:51.766Z,5.83
2018-08-25T01:42:20.329Z,6.07
2018-08-25T01:44:48.896Z,4.70
2018-08-25T01:47:17.462Z,4.80
2018-08-25T01:49:46.027Z,4.80
2018-08-25T01:52:14.568Z,5.90
2018-08-25T01:54:43.127Z,5.53
2018-08-25T01:57:11.728Z,4.67
2018-08-25T01:59:40.355Z,5.50
2018-08-25T02:02:08.894Z,5.47
2018-08-25T02:04:37.477Z,5.03
2018-08-25T02:07:06.031Z,4.50
2018-08-25T02:09:34.598Z,5.80
2018-08-25T02:12:03.170Z,6.00
2018-08-25T02:14:31.773Z,5.50
2018-08-25T02:17:00.337Z,5.13
2018-08-25T02:19:28.917Z,5.33
2018-08-25T02:21:57.534Z,5.03
2018-08-25T02:24:26.155Z,4.67
2018-08-25T02:26:55.175Z,4.67
2018-08-25T02:29:23.765Z,5.33
2018-08-25T02:31:52.363Z,5.50
2018-08-25T02:34:21.158Z,5.40
2018-08-25T02:36:49.679Z,5.23
2018-08-25T02:39:18.313Z,4.80
2018-08-25T02:41:46.863Z,5.27
2018-08-25T02:44:15.425Z,5.47
2018-08-25T02:46:43.997Z,5.70
2018-08-25T02:49:12.581Z,4.73
2018-08-25T02:51:41.161Z,4.33
2018-08-25T02:54:09.703Z,5.50
2018-08-25T02:56:38.201Z,6.07
2018-08-25T02:59:06.802Z,5.30
2018-08-25T03:01:35.399Z,5.13
2018-08-25T03:04:03.969Z,5.10
2018-08-25T03:06:32.562Z,5.40
2018-08-25T03:09:01.099Z,5.73
2018-08-25T03:11:29.682Z,5.20
2018-08-25T03:13:58.261Z,5.20
2018-08-25T03:16:26.840Z,5.10
2018-08-25T03:18:55.426Z,5.30
2018-08-25T03:21:23.985Z,6.30
2018-08-25T03:23:52.870Z,5.63
2018-08-25T03:26:21.404Z,5.77
2018-08-25T03:28:49.993Z,6.30
2018-08-25T03:31:18.558Z,6.27
2018-08-25T03:33:47.125Z,5.90
2018-08-25T03:36:15.713Z,6.90
2018-08-25T03:38:44.246Z,6.20
2018-08-25T03:41:12.830Z,5.90
2018-08-25T03:43:41.359Z,6.13
2018-08-25T03:46:09.889Z,5.60
2018-08-25T03:48:38.475Z,6.17
2018-08-25T03:51:07.008Z,6.03
2018-08-25T03:53:35.510Z,6.20
2018-08-25T03:56:04.088Z,6.30
2018-08-25T03:58:32.650Z,5.70
2018-08-25T04:01:01.168Z,5.47
2018-08-25T04:03:29.769Z,5.90
2018-08-25T04:05:58.329Z,5.10
2018-08-25T04:08:26.892Z,5.57
2018-08-25T04:10:55.473Z,6.40
2018-08-25T04:13:24.015Z,7.10
2018-08-25T04:15:52.585Z,6.17
2018-08-25T04:18:21.158Z,6.67
2018-08-25T04:20:49.699Z,5.80
2018-08-25T04:23:18.266Z,6.30
2018-08-25T04:25:46.841Z,5.93
2018-08-25T04:28:15.410Z,6.50
2018-08-25T04:30:44.176Z,6.33
2018-08-25T04:33:12.750Z,6.60
2018-08-25T04:35:41.296Z,6.63
2018-08-25T04:38:09.819Z,5.60
2018-08-25T04:40:38.837Z,6.30
2018-08-25T04:43:07.377Z,6.33
2018-08-25T04:45:35.942Z,5.10
2018-08-25T04:48:04.830Z,5.30
2018-08-25T04:50:33.370Z,5.93
2018-08-25T04:53:01.925Z,6.43
2018-08-25T04:55:30.538Z,5.00
2018-08-25T04:57:59.095Z,6.50
2018-08-25T05:00:27.629Z,5.83
2018-08-25T05:02:56.227Z,5.70
2018-08-25T05:05:24.750Z,5.20
2018-08-25T05:07:53.354Z,5.93
2018-08-25T05:10:22.005Z,5.30
2018-08-25T05:12:50.571Z,5.50
2018-08-25T05:15:19.138Z,4.70
2018-08-25T05:17:47.736Z,5.03
2018-08-25T05:20:16.336Z,4.80
2018-08-25T05:22:44.930Z,5.10
2018-08-25T05:25:13.470Z,4.97
2018-08-25T05:27:42.008Z,5.00
2018-08-25T05:30:10.606Z,5.03
2018-08-25T05:32:39.173Z,5.17
2018-08-25T05:35:07.773Z,4.50
2018-08-25T05:37:36.342Z,5.07
2018-08-25T05:40:04.989Z,5.37
2018-08-25T05:42:33.560Z,5.20
2018-08-25T05:45:02.168Z,6.33
2018-08-25T05:47:30.742Z,6.60
2018-08-25T05:49:59.287Z,4.87
2018-08-25T05:52:27.837Z,4.90
2018-08-25T05:54:56.418Z,5.60
2018-08-25T05:57:24.977Z,4.77
2018-08-25T05:59:53.556Z,5.50
2018-08-25T06:02:22.134Z,5.17
2018-08-25T06:04:50.686Z,5.10
2018-08-25T06:07:19.257Z,5.00
2018-08-25T06:09:47.847Z,4.40
2018-08-25T06:12:16.418Z,5.43
2018-08-25T06:14:44.974Z,4.47
2018-08-25T06:17:13.596Z,4.30
2018-08-25T06:19:42.150Z,4.30
2018-08-25T06:22:10.755Z,4.10
2018-08-25T06:24:39.314Z,4.30
2018-08-25T06:27:07.890Z,4.30
2018-08-25T06:29:36.494Z,3.93
2018-08-25T06:32:05.154Z,3.67
2018-08-25T06:34:33.689Z,4.20
2018-08-25T06:37:02.224Z,4.10
2018-08-25T06:39:30.775Z,4.00
2018-08-25T06:41:59.358Z,4.80
2018-08-25T06:44:27.882Z,4.30
2018-08-25T06:46:56.479Z,3.80
2018-08-25T06:49:25.174Z,3.90
2018-08-25T06:51:53.929Z,4.43
2018-08-25T06:54:22.504Z,4.60
2018-08-25T06:56:51.070Z,4.00
2018-08-25T06:59:19.668Z,4.13
2018-08-25T07:01:48.367Z,4.10
2018-08-25T07:04:16.932Z,3.60
2018-08-25T07:06:45.459Z,3.50
2018-08-25T07:09:14.045Z,3.57
2018-08-25T07:11:42.988Z,3.47
2018-08-25T07:14:12.015Z,3.60
2018-08-25T07:16:41.007Z,3.97
2018-08-25T07:19:09.640Z,4.00
2018-08-25T07:21:38.135Z,4.00
2018-08-25T07:24:06.970Z,3.17
2018-08-25T07:26:35.538Z,3.40
2018-08-25T07:29:04.102Z,3.47
2018-08-25T07:31:32.673Z,3.30
2018-08-25T07:34:01.488Z,3.43
2018-08-25T07:36:30.104Z,3.80
2018-08-25T07:38:58.693Z,4.10
2018-08-25T07:41:27.226Z,3.87
2018-08-25T07:43:55.816Z,3.50
2018-08-25T07:46:24.394Z,3.00
2018-08-25T07:48:52.961Z,2.50
2018-08-25T07:51:21.527Z,3.70
2018-08-25T07:53:50.195Z,3.17
2018-08-25T07:56:18.828Z,3.10
2018-08-25T07:58:47.345Z,3.50
2018-08-25T08:01:15.916Z,2.90
2018-08-25T08:03:44.499Z,3.30
2018-08-25T08:06:13.566Z,3.13
2018-08-25T08:08:42.107Z,3.50
2018-08-25T08:11:10.706Z,3.00
2018-08-25T08:13:39.250Z,2.87
2018-08-25T08:16:07.995Z,2.97
2018-08-25T08:18:36.917Z,3.60
2018-08-25T08:21:05.606Z,3.90
2018-08-25T08:23:34.165Z,3.13
2018-08-25T08:26:02.703Z,3.17
2018-08-25T08:28:31.237Z,3.40
2018-08-25T08:30:59.788Z,2.87
2018-08-25T08:33:28.339Z,3.10
2018-08-25T08:35:56.922Z,3.67
2018-08-25T08:38:25.564Z,3.73
2018-08-25T08:40:54.095Z,3.87
2018-08-25T08:43:22.628Z,3.40
2018-08-25T08:45:51.221Z,3.30
2018-08-25T08:48:19.802Z,2.90
2018-08-25T08:50:48.335Z,3.60
2018-08-25T08:53:16.922Z,3.40
2018-08-25T08:55:45.467Z,2.63
2018-08-25T08:58:14.021Z,2.57
2018-08-25T09:00:42.651Z,2.77
2018-08-25T09:03:11.228Z,2.97
2018-08-25T09:05:39.742Z,3.10
2018-08-25T09:08:08.341Z,3.43
2018-08-25T09:10:36.972Z,3.00
2018-08-25T09:13:05.544Z,2.60
2018-08-25T09:15:34.269Z,2.47
2018-08-25T09:18:02.822Z,3.40
2018-08-25T09:20:31.392Z,2.47
2018-08-25T09:23:00.069Z,2.60
2018-08-25T09:25:28.638Z,2.40
2018-08-25T09:27:57.178Z,3.23
2018-08-25T09:30:25.741Z,2.47
2018-08-25T09:32:54.310Z,2.60
2018-08-25T09:35:22.887Z,2.70
2018-08-25T09:37:51.491Z,2.77
2018-08-25T09:40:20.028Z,2.80
2018-08-25T09:42:49.428Z,2.27
2018-08-25T09:45:18.015Z,2.23
2018-08-25T09:47:46.533Z,1.73
2018-08-25T09:50:15.148Z,2.00
2018-08-25T09:52:43.721Z,1.97
2018-08-25T09:55:12.278Z,2.10
2018-08-25T09:57:40.975Z,1.53
2018-08-25T10:00:10.621Z,1.70
2018-08-25T10:02:39.192Z,1.60
2018-08-25T10:05:08.403Z,1.80
2018-08-25T10:07:36.949Z,1.60
2018-08-25T10:10:06.362Z,2.03
2018-08-25T10:12:34.960Z,2.10
2018-08-25T10:15:03.559Z,2.17
2018-08-25T10:17:32.098Z,2.30
2018-08-25T10:20:00.736Z,1.93
2018-08-25T10:22:29.322Z,2.90
2018-08-25T10:24:57.959Z,3.07
2018-08-25T10:27:26.502Z,3.27
2018-08-25T10:29:55.101Z,2.70
2018-08-25T10:32:23.616Z,3.07
2018-08-25T10:34:52.128Z,2.37
2018-08-25T10:37:20.724Z,2.60
2018-08-25T10:39:49.322Z,2.60
2018-08-25T10:42:17.890Z,2.70
2018-08-25T10:44:46.503Z,1.90
2018-08-25T10:47:15.039Z,2.33
2018-08-25T10:49:43.573Z,2.13
2018-08-25T10:52:12.216Z,2.30
2018-08-25T10:54:40.760Z,1.77
2018-08-25T10:57:09.310Z,2.03
2018-08-25T10:59:37.923Z,2.37
2018-08-25T11:02:08.110Z,1.70
2018-08-25T11:04:37.682Z,1.60
2018-08-25T11:07:06.274Z,1.47
2018-08-25T11:09:34.798Z,1.90
2018-08-25T11:12:03.388Z,2.17
2018-08-25T11:14:31.951Z,1.53
2018-08-25T11:17:00.512Z,2.17
2018-08-25T11:19:29.149Z,2.00
2018-08-25T11:21:57.726Z,2.40
2018-08-25T11:24:26.264Z,2.10
2018-08-25T11:26:54.809Z,2.13
2018-08-25T11:29:23.483Z,1.93
2018-08-25T11:31:51.933Z,2.33
2018-08-25T11:34:20.518Z,2.50
2018-08-25T11:36:49.118Z,3.10
2018-08-25T11:39:17.686Z,2.50
2018-08-25T11:41:46.232Z,2.40
2018-08-25T11:44:14.790Z,2.33
2018-08-25T11:46:43.434Z,2.87
2018-08-25T11:49:12.030Z,1.73
2018-08-25T11:51:40.583Z,1.93
2018-08-25T11:54:09.194Z,1.80
2018-08-25T11:56:37.710Z,2.23
2018-08-25T11:59:06.261Z,2.10
2018-08-25T12:01:34.943Z,1.50
2018-08-25T12:04:03.657Z,2.50
2018-08-25T12:06:32.224Z,2.40
2018-08-25T12:09:00.836Z,1.87
2018-08-25T12:11:29.413Z,1.80
2018-08-25T12:13:57.958Z,1.83
2018-08-25T12:16:26.647Z,2.00
2018-08-25T12:18:55.174Z,2.03
2018-08-25T12:21:23.759Z,1.80
2018-08-25T12:23:52.397Z,1.40
2018-08-25T12:26:21.078Z,2.20
2018-08-25T12:28:49.628Z,2.90
2018-08-25T12:31:18.222Z,2.10
2018-08-25T12:33:46.808Z,2.27
2018-08-25T12:36:15.342Z,1.93
2018-08-25T12:38:43.910Z,2.47
2018-08-25T12:41:12.486Z,1.90
2018-08-25T12:43:41.054Z,2.40
2018-08-25T12:46:09.634Z,2.23
2018-08-25T12:48:38.263Z,2.70
2018-08-25T12:51:07.024Z,2.80
2018-08-25T12:53:35.546Z,3.17
2018-08-25T12:56:04.157Z,2.47
2018-08-25T12:58:32.725Z,2.63
2018-08-25T13:01:01.267Z,1.93
2018-08-25T13:03:29.952Z,1.87
2018-08-25T13:05:58.533Z,1.90
2018-08-25T13:08:27.149Z,2.13
2018-08-25T13:10:55.783Z,1.77
2018-08-25T13:13:24.361Z,1.30
2018-08-25T13:15:52.928Z,1.80
2018-08-25T13:18:21.551Z,1.60
2018-08-25T13:20:50.115Z,1.33
2018-08-25T13:23:18.687Z,1.60
2018-08-25T13:25:47.266Z,1.53
2018-08-25T13:28:15.788Z,1.40
2018-08-25T13:30:44.407Z,1.80
2018-08-25T13:33:12.960Z,1.30
2018-08-25T13:35:41.848Z,1.33
2018-08-25T13:38:10.513Z,1.27
2018-08-25T13:40:39.170Z,1.13
2018-08-25T13:43:07.743Z,1.53
2018-08-25T13:45:36.311Z,1.20
2018-08-25T13:48:04.886Z,1.60
2018-08-25T13:50:33.464Z,1.50
2018-08-25T13:53:02.079Z,1.30
2018-08-25T13:55:30.687Z,1.30
2018-08-25T13:57:59.264Z,1.13
2018-08-25T14:00:27.827Z,1.50
2018-08-25T14:02:56.642Z,1.40
2018-08-25T14:05:25.327Z,1.53
2018-08-25T14:07:53.923Z,1.33
2018-08-25T14:10:22.622Z,1.40
2018-08-25T14:12:51.176Z,1.10
2018-08-25T14:15:20.015Z,1.10
2018-08-25T14:17:48.630Z,1.23
2018-08-25T14:20:17.188Z,1.07
2018-08-25T14:22:46.522Z,1.13
2018-08-25T14:25:15.113Z,1.13
2018-08-25T14:27:43.703Z,1.07
2018-08-25T14:30:12.263Z,1.20
2018-08-25T14:32:40.867Z,1.13
2018-08-25T14:35:09.400Z,1.03
2018-08-25T14:37:37.945Z,0.70
2018-08-25T14:40:06.582Z,1.10
2018-08-25T14:42:35.114Z,1.10
2018-08-25T14:45:03.685Z,1.43
2018-08-25T14:47:32.325Z,0.97
2018-08-25T14:50:00.933Z,0.80
2018-08-25T14:52:29.522Z,0.77
2018-08-25T14:54:58.094Z,1.00
2018-08-25T14:57:26.943Z,0.80
2018-08-25T14:59:58.535Z,1.13
2018-08-25T15:02:27.086Z,0.90
2018-08-25T15:04:55.657Z,0.77
2018-08-25T15:07:24.247Z,0.70
2018-08-25T15:09:53.140Z,0.70
2018-08-25T15:12:21.675Z,0.60
2018-08-25T15:14:50.306Z,0.77
2018-08-25T15:17:18.931Z,0.70
2018-08-25T15:19:47.487Z,0.60
2018-08-25T15:22:16.109Z,0.90
2018-08-25T15:24:44.647Z,0.60
2018-08-25T15:27:13.267Z,0.90
2018-08-25T15:29:41.825Z,0.80
2018-08-25T15:32:10.350Z,0.60
2018-08-25T15:34:38.887Z,0.80
2018-08-25T15:37:07.478Z,0.60
2018-08-25T15:39:36.020Z,0.70
2018-08-25T15:42:04.553Z,1.07
2018-08-25T15:44:33.253Z,0.63
2018-08-25T15:47:01.819Z,0.60
2018-08-25T15:49:30.419Z,1.43
2018-08-25T15:51:59.116Z,0.83
2018-08-25T15:54:27.911Z,0.77
2018-08-25T15:56:56.467Z,0.50
2018-08-25T15:59:25.043Z,0.53
2018-08-25T16:01:53.607Z,0.60
2018-08-25T16:04:22.172Z,0.87
2018-08-25T16:06:50.816Z,0.80
2018-08-25T16:09:19.386Z,1.40
2018-08-25T16:11:47.971Z,1.07
2018-08-25T16:14:16.544Z,1.23
2018-08-25T16:16:45.098Z,1.13
2018-08-25T16:19:13.727Z,0.80
2018-08-25T16:21:42.263Z,0.87
2018-08-25T16:24:10.808Z,0.90
2018-08-25T16:26:39.393Z,1.00
2018-08-25T16:29:08.018Z,3.03
2018-08-25T16:31:36.598Z,1.70
2018-08-25T16:34:06.011Z,0.93
2018-08-25T16:36:34.579Z,1.00
2018-08-25T16:39:03.974Z,0.93
2018-08-25T16:41:32.554Z,1.30
2018-08-25T16:44:01.195Z,1.30
2018-08-25T16:46:29.743Z,0.93
2018-08-25T16:48:58.360Z,0.70
2018-08-25T16:51:26.908Z,1.27
2018-08-25T16:53:55.464Z,1.40
2018-08-25T16:56:24.025Z,1.13
2018-08-25T16:58:52.617Z,1.97
2018-08-25T17:01:21.178Z,1.73
2018-08-25T17:03:49.740Z,3.00
2018-08-25T17:06:18.330Z,1.20
2018-08-25T17:08:46.913Z,1.30
2018-08-25T17:11:15.454Z,1.00
2018-08-25T17:13:44.088Z,1.30
2018-08-25T17:16:12.894Z,1.30
2018-08-25T17:18:41.457Z,1.00
2018-08-25T17:21:10.178Z,1.10
2018-08-25T17:23:38.642Z,1.20
2018-08-25T17:26:07.239Z,1.40
2018-08-25T17:28:35.850Z,5.43
2018-08-25T17:31:04.430Z,2.10
2018-08-25T17:33:32.959Z,2.07
2018-08-25T17:36:01.570Z,1.17
2018-08-25T17:38:30.181Z,1.60
2018-08-25T17:40:58.750Z,1.20
2018-08-25T17:43:27.286Z,1.10
2018-08-25T17:45:55.834Z,1.17
2018-08-25T17:48:24.375Z,1.40
2018-08-25T17:50:53.080Z,1.90
2018-08-25T17:53:21.514Z,1.63
2018-08-25T17:55:50.056Z,1.43
2018-08-25T17:58:18.659Z,1.30
2018-08-25T18:00:47.466Z,1.33
2018-08-25T18:03:16.025Z,1.20
2018-08-25T18:05:44.636Z,1.90
2018-08-25T18:08:13.165Z,4.07
2018-08-25T18:10:41.736Z,2.40
2018-08-25T18:13:10.314Z,1.20
2018-08-25T18:15:38.860Z,1.63
2018-08-25T18:18:07.494Z,1.77
2018-08-25T18:20:36.052Z,1.60
2018-08-25T18:23:04.666Z,2.17
2018-08-25T18:25:33.183Z,2.50
2018-08-25T18:28:01.782Z,1.90
2018-08-25T18:30:30.352Z,1.70
2018-08-25T18:32:58.888Z,1.50
2018-08-25T18:35:27.536Z,1.43
2018-08-25T18:37:56.102Z,1.83
2018-08-25T18:40:24.662Z,1.40
2018-08-25T18:42:53.270Z,2.77
2018-08-25T18:45:22.210Z,1.60
2018-08-25T18:47:50.770Z,1.27
2018-08-25T18:50:19.411Z,1.23
2018-08-25T18:52:47.942Z,1.00
2018-08-25T18:55:16.572Z,1.10
2018-08-25T18:57:45.120Z,1.40
2018-08-25T19:00:13.747Z,1.30
2018-08-25T19:02:42.310Z,1.40
2018-08-25T19:05:10.915Z,1.03
2018-08-25T19:07:39.474Z,1.13
2018-08-25T19:10:08.080Z,1.40
2018-08-25T19:12:36.643Z,1.50
2018-08-25T19:15:05.231Z,1.03
2018-08-25T19:17:33.794Z,1.07
2018-08-25T19:20:02.404Z,1.30
2018-08-25T19:22:30.955Z,1.20
2018-08-25T19:24:59.470Z,1.20
2018-08-25T19:27:28.063Z,1.10
2018-08-25T19:29:56.701Z,1.17
2018-08-25T19:32:25.182Z,1.40
2018-08-25T19:34:53.818Z,1.20
2018-08-25T19:37:22.426Z,1.20
2018-08-25T19:39:50.989Z,1.07
2018-08-25T19:42:19.546Z,1.23
2018-08-25T19:44:48.111Z,1.20
2018-08-25T19:47:16.673Z,1.20
2018-08-25T19:49:45.253Z,1.30
2018-08-25T19:52:13.818Z,1.13
2018-08-25T19:54:42.375Z,1.30
2018-08-25T19:57:10.956Z,1.37
2018-08-25T19:59:39.545Z,1.13
2018-08-25T20:02:08.106Z,1.67
2018-08-25T20:04:36.685Z,1.30
2018-08-25T20:07:05.473Z,1.20
2018-08-25T20:09:34.172Z,1.30
2018-08-25T20:12:02.670Z,1.70
2018-08-25T20:14:31.189Z,1.10
2018-08-25T20:16:59.773Z,1.40
2018-08-25T20:19:28.346Z,1.33
2018-08-25T20:21:56.887Z,1.43
2018-08-25T20:24:28.378Z,1.27
2018-08-25T20:26:57.062Z,1.30
2018-08-25T20:29:25.575Z,1.37
2018-08-25T20:31:54.173Z,1.20
2018-08-25T20:34:22.758Z,1.20
2018-08-25T20:36:51.360Z,1.43
2018-08-25T20:39:19.896Z,1.53
2018-08-25T20:41:48.495Z,1.30
2018-08-25T20:44:17.057Z,1.23
2018-08-25T20:46:45.659Z,1.50
2018-08-25T20:49:14.247Z,1.70
2018-08-25T20:51:42.780Z,1.23
2018-08-25T20:54:11.417Z,1.87
2018-08-25T20:56:39.988Z,1.57
2018-08-25T20:59:08.547Z,1.53
2018-08-25T21:01:37.115Z,1.53
2018-08-25T21:04:05.718Z,1.50
2018-08-25T21:06:34.337Z,1.60
2018-08-25T21:09:02.937Z,1.43
2018-08-25T21:11:31.506Z,1.47
2018-08-25T21:14:00.063Z,1.30
2018-08-25T21:16:28.591Z,1.47
2018-08-25T21:18:57.185Z,1.40
2018-08-25T21:21:25.763Z,1.80
2018-08-25T21:23:54.390Z,1.67
2018-08-25T21:26:22.991Z,1.47
2018-08-25T21:28:51.551Z,1.63
2018-08-25T21:31:20.138Z,1.80
2018-08-25T21:33:48.742Z,1.50
2018-08-25T21:36:17.310Z,1.77
2018-08-25T21:38:46.572Z,1.30
2018-08-25T21:41:15.184Z,2.00
2018-08-25T21:43:43.706Z,2.00
2018-08-25T21:46:12.267Z,1.80
2018-08-25T21:48:40.864Z,1.90
2018-08-25T21:51:09.451Z,1.60
2018-08-25T21:53:37.985Z,1.87
2018-08-25T21:56:06.685Z,1.63
2018-08-25T21:58:35.370Z,1.77
2018-08-25T22:01:04.015Z,1.97
2018-08-25T22:03:32.562Z,1.77
2018-08-25T22:06:01.062Z,2.37
2018-08-25T22:08:29.610Z,2.50
2018-08-25T22:10:58.208Z,2.83
2018-08-25T22:13:26.725Z,2.50
2018-08-25T22:15:55.274Z,2.43
2018-08-25T22:18:23.890Z,3.47
2018-08-25T22:20:52.451Z,2.53
2018-08-25T22:23:21.008Z,3.13
2018-08-25T22:25:49.577Z,3.27
2018-08-25T22:28:18.130Z,3.53
2018-08-25T22:30:46.695Z,2.83
2018-08-25T22:33:15.251Z,2.77
2018-08-25T22:35:43.771Z,3.33
2018-08-25T22:38:12.340Z,2.97
2018-08-25T22:40:40.933Z,3.13
2018-08-25T22:43:09.538Z,3.10
2018-08-25T22:45:38.091Z,3.30
2018-08-25T22:48:07.242Z,3.00
2018-08-25T22:50:35.781Z,3.90
2018-08-25T22:53:04.364Z,3.20
2018-08-25T22:55:32.898Z,3.40
2018-08-25T22:58:01.601Z,3.40
2018-08-25T23:00:30.199Z,3.47
2018-08-25T23:02:58.786Z,2.80
2018-08-25T23:05:27.320Z,2.63
2018-08-25T23:07:55.908Z,2.60
2018-08-25T23:10:24.443Z,3.03
2018-08-25T23:12:53.004Z,2.80
2018-08-25T23:15:21.595Z,2.93
2018-08-25T23:17:50.244Z,3.37
2018-08-25T23:20:18.766Z,2.80
2018-08-25T23:22:47.306Z,3.17
2018-08-25T23:25:15.875Z,3.40
2018-08-25T23:27:44.393Z,3.13
2018-08-25T23:30:13.037Z,3.40
2018-08-25T23:32:41.604Z,3.20
2018-08-25T23:35:10.165Z,3.30
2018-08-25T23:37:38.815Z,3.10
2018-08-25T23:40:08.342Z,3.53
2018-08-25T23:42:36.894Z,3.40
2018-08-25T23:45:05.519Z,3.20
2018-08-25T23:47:34.168Z,2.63
2018-08-25T23:50:02.732Z,3.30
2018-08-25T23:52:36.120Z,2.93
2018-08-25T23:55:06.831Z,3.17
2018-08-25T23:57:35.406Z,2.60
